Time;durP1;ratioP1;P1;durP2;ratioP2;P2;SDS_P1;SDS_P2;PMS_P1;PMS_P2;Temp;Humidity;BMP_temperature;BMP_pressure;BME280_temperature;BME280_humidity;BME280_pressure;Samples;Min_cycle;Max_cycle;Signal;HPM_P1;HPM_P2
2022/02/03 00:00:39;;;;;;;79.03;54.97;;;;;;;3.48;70.68;98813.53;6279684;22;20403;-80
2022/02/03 00:03:51;;;;;;;77.40;52.00;;;;;;;3.57;70.83;98832.69;6307763;22;20063;-80
2022/02/03 00:06:08;;;;;;;84.17;56.47;;;;;;;2.71;70.68;98716.81;6301156;22;20362;-80
2022/02/03 00:24:53;;;;;;;72.80;48.00;;;;;;;3.13;70.39;98767.41;6307080;22;19998;-80
2022/02/03 00:27:38;;;;;;;62.07;39.97;;;;;;;3.47;70.09;98835.38;6279746;22;20078;-80
2022/02/03 00:30:08;;;;;;;63.23;42.43;;;;;;;3.31;70.12;98795.28;6307074;22;20066;-80
2022/02/03 00:51:23;;;;;;;45.77;30.67;;;;;;;3.53;68.79;98852.22;6306518;22;20087;-80
2022/02/03 00:53:49;;;;;;;45.13;29.50;;;;;;;3.21;68.12;98791.94;6306430;22;20006;-80
2022/02/03 00:56:26;;;;;;;46.57;31.93;;;;;;;3.05;68.57;98754.31;6278919;22;20007;-80
2022/02/03 00:59:01;;;;;;;43.67;30.17;;;;;;;3.64;68.48;98851.16;6306754;22;19999;-80
2022/02/03 01:01:35;;;;;;;44.07;30.27;;;;;;;3.72;68.22;98867.75;6306704;22;19995;-80
2022/02/03 01:04:10;;;;;;;42.80;29.07;;;;;;;3.79;67.89;98881.84;6306075;22;20360;-80
2022/02/03 01:06:43;;;;;;;41.80;29.23;;;;;;;3.30;67.92;98796.25;6306140;22;19992;-80
2022/02/03 01:09:11;;;;;;;39.80;27.83;;;;;;;3.29;68.29;98807.66;6306200;22;20033;-80
2022/02/03 01:11:42;;;;;;;41.73;28.43;;;;;;;3.60;67.95;98847.22;6305941;22;20006;-80
2022/02/03 01:14:13;;;;;;;36.17;25.13;;;;;;;3.40;68.19;98820.47;6278803;22;20513;-80
2022/02/03 01:53:41;;;;;;;19.93;14.83;;;;;;;3.53;65.92;98854.84;6307575;22;20048;-79
2022/02/03 01:56:09;;;;;;;21.07;16.50;;;;;;;3.65;65.53;98866.69;6307028;22;19995;-79
2022/02/03 01:58:46;;;;;;;22.70;15.60;;;;;;;3.91;65.33;98913.75;6306156;22;20005;-79
2022/02/03 02:01:23;;;;;;;18.73;14.57;;;;;;;3.89;65.58;98920.09;6279122;22;20064;-80
2022/02/03 02:04:10;;;;;;;21.87;15.90;;;;;;;3.87;65.39;98917.63;6305974;22;19999;-80
2022/02/03 02:06:48;;;;;;;25.93;17.10;;;;;;;3.85;65.64;98911.75;6279130;22;20010;-79
2022/02/03 02:09:46;;;;;;;27.30;17.50;;;;;;;3.82;65.23;98912.88;6306307;22;19999;-80
2022/02/03 02:12:55;;;;;;;24.30;17.17;;;;;;;3.84;65.54;98902.28;6306274;22;20002;-80
2022/02/03 02:18:34;;;;;;;22.57;15.07;;;;;;;3.68;65.37;98881.22;6305481;22;20010;-79
2022/02/03 02:43:41;;;;;;;18.60;13.77;;;;;;;3.28;65.16;98858.19;6305989;22;20002;-79
2022/02/03 02:46:32;;;;;;;19.43;14.20;;;;;;;3.46;65.21;98893.75;6278380;22;19999;-79
2022/02/03 02:49:43;;;;;;;20.37;14.90;;;;;;;3.73;65.37;98932.03;6305694;22;20000;-80
2022/02/03 02:52:13;;;;;;;18.20;12.27;;;;;;;3.44;65.16;98898.31;6243716;22;19999;-80
2022/02/03 02:55:13;;;;;;;20.53;13.53;;;;;;;3.68;65.00;98939.47;6306177;22;20060;-79
2022/02/03 03:38:18;;;;;;;16.30;11.63;;;;;;;3.76;64.51;98957.84;6308347;22;19999;-80
2022/02/03 03:40:48;;;;;;;16.63;11.90;;;;;;;3.56;64.74;98927.59;6307486;22;20484;-80
2022/02/03 03:43:24;;;;;;;14.93;11.80;;;;;;;3.79;64.08;98970.59;6307686;22;20053;-79
2022/02/03 03:45:52;;;;;;;15.80;11.20;;;;;;;3.77;64.26;98966.50;6280378;22;20356;-80
2022/02/03 03:48:19;;;;;;;12.03;9.07;;;;;;;3.37;64.26;98918.13;6307424;22;19996;-80
2022/02/03 03:50:51;;;;;;;15.00;10.43;;;;;;;3.81;64.16;98971.28;6306962;22;20069;-80
2022/02/03 03:53:31;;;;;;;11.88;8.23;;;;;;;3.26;64.29;98902.69;6307281;22;20399;-80
2022/02/03 03:56:07;;;;;;;11.53;8.70;;;;;;;3.48;64.27;98930.97;6306924;22;20425;-79
2022/02/03 04:30:59;;;;;;;12.57;9.43;;;;;;;3.82;63.99;99006.88;6307012;22;20009;-80
2022/02/03 04:54:05;;;;;;;11.57;8.80;;;;;;;3.90;64.10;99040.06;6306457;22;20086;-80
2022/02/03 05:11:25;;;;;;;11.57;8.77;;;;;;;3.92;64.63;99066.03;6306567;22;20084;-80
2022/02/03 05:26:28;;;;;;;11.60;9.13;;;;;;;4.00;64.64;99108.75;6337025;22;20001;-83
2022/02/03 06:08:21;;;;;;;18.60;14.67;;;;;;;3.25;65.59;99109.75;6224562;22;20007;-83
2022/02/03 06:21:29;;;;;;;17.73;14.13;;;;;;;1.00;65.09;98717.16;6305232;22;19998;-84
2022/02/03 06:29:30;;;;;;;19.07;14.20;;;;;;;3.69;64.93;99167.41;6217106;22;20511;-80
2022/02/03 06:31:55;;;;;;;18.37;15.27;;;;;;;3.89;64.64;99205.56;6275260;22;19996;-80
2022/02/03 06:34:22;;;;;;;16.83;13.87;;;;;;;4.09;65.03;99221.97;6274990;22;19996;-80
2022/02/03 06:36:50;;;;;;;18.70;14.73;;;;;;;4.28;64.90;99263.69;6274735;22;20374;-80
2022/02/03 06:39:22;;;;;;;20.43;16.00;;;;;;;4.29;65.07;99267.97;6274787;22;19995;-80
2022/02/03 06:41:54;;;;;;;22.20;15.88;;;;;;;4.15;65.13;99243.13;6275062;22;19996;-80
2022/02/03 06:44:24;;;;;;;19.83;14.97;;;;;;;3.92;64.90;99207.06;6248457;22;19999;-80
2022/02/03 06:46:52;;;;;;;17.33;14.07;;;;;;;4.29;65.02;99294.09;6276826;22;20098;-80
2022/02/03 06:49:29;;;;;;;21.10;17.17;;;;;;;4.34;64.90;99286.63;6249752;22;19999;-80
2022/02/03 06:52:08;;;;;;;22.77;15.50;;;;;;;4.02;64.93;99234.78;6276605;22;20078;-80
2022/02/03 06:57:32;;;;;;;22.30;16.43;;;;;;;3.99;64.65;99222.03;6215009;22;20000;-80
2022/02/03 07:00:03;;;;;;;17.33;13.90;;;;;;;3.21;64.68;99104.97;6274018;22;20023;-79
2022/02/03 07:02:33;;;;;;;19.73;14.57;;;;;;;4.03;64.41;99219.94;6276938;22;20000;-79
2022/02/03 07:04:58;;;;;;;17.37;14.00;;;;;;;4.24;64.79;99275.41;6301492;22;20070;-79
2022/02/03 07:07:25;;;;;;;18.63;13.47;;;;;;;3.86;64.68;99205.88;6308266;22;20022;-79
2022/02/03 07:09:51;;;;;;;16.93;13.57;;;;;;;3.22;64.49;99094.38;6307625;22;20026;-79
2022/02/03 07:12:18;;;;;;;16.10;13.77;;;;;;;4.17;64.08;99248.22;6279999;22;20329;-80
2022/02/03 07:14:43;;;;;;;16.37;13.73;;;;;;;4.18;64.48;99260.31;6279678;22;20001;-80
2022/02/03 07:17:09;;;;;;;15.33;12.77;;;;;;;4.22;64.46;99250.38;6279060;22;20078;-80
2022/02/03 07:19:40;;;;;;;16.67;12.57;;;;;;;3.90;64.27;99185.50;6307231;22;20455;-80
2022/02/03 07:22:06;;;;;;;15.77;14.07;;;;;;;4.73;64.17;99312.63;6306629;22;20348;-79
2022/02/03 07:24:31;;;;;;;16.80;13.67;;;;;;;4.25;64.07;99253.53;6306201;22;20006;-79
2022/02/03 07:26:57;;;;;;;18.10;14.20;;;;;;;4.62;64.31;99318.88;6304654;22;19991;-79
2022/02/03 07:29:22;;;;;;;18.30;14.03;;;;;;;3.69;64.29;99149.97;6278881;22;20000;-79
2022/02/03 07:31:47;;;;;;;15.27;12.50;;;;;;;4.79;63.96;99325.09;6279509;22;19999;-79
2022/02/03 07:34:15;;;;;;;16.27;14.57;;;;;;;4.46;64.24;99293.34;6279052;22;20037;-80
2022/02/03 07:36:43;;;;;;;19.27;15.73;;;;;;;4.89;63.98;99333.72;6279440;22;20384;-80
2022/02/03 07:39:09;;;;;;;19.57;15.00;;;;;;;4.62;63.93;99287.50;6278768;22;20400;-79
2022/02/03 07:41:34;;;;;;;14.10;12.17;;;;;;;4.84;63.86;99309.78;6279226;22;20014;-80
2022/02/03 07:43:59;;;;;;;17.20;12.80;;;;;;;4.84;63.99;99309.78;6303395;22;20340;-80
2022/02/03 07:46:25;;;;;;;15.73;13.07;;;;;;;4.67;63.77;99289.66;6276698;22;19995;-80
2022/02/03 07:48:52;;;;;;;19.80;14.00;;;;;;;4.90;63.74;99321.47;6278048;22;19995;-80
2022/02/03 07:51:18;;;;;;;18.10;14.03;;;;;;;5.05;63.46;99328.66;6277142;22;19999;-81
2022/02/03 07:53:44;;;;;;;16.13;12.20;;;;;;;5.07;63.52;99331.13;6278351;22;20398;-80
2022/02/03 07:56:10;;;;;;;15.10;12.83;;;;;;;4.32;63.21;99225.03;6277252;22;20086;-80
2022/02/03 07:58:35;;;;;;;13.83;10.93;;;;;;;4.43;63.25;99223.03;6278051;22;20010;-80
2022/02/03 08:01:00;;;;;;;15.03;12.33;;;;;;;5.22;63.13;99382.00;6306539;22;19995;-80
2022/02/03 08:03:26;;;;;;;18.57;13.83;;;;;;;4.75;63.43;99306.25;6307016;22;20045;-80
2022/02/03 08:05:58;;;;;;;17.60;12.80;;;;;;;4.82;63.46;99296.03;6307251;22;19991;-80
2022/02/03 08:08:30;;;;;;;17.23;12.05;;;;;;;4.76;63.51;99322.78;6306083;22;20089;-80
2022/02/03 08:11:00;;;;;;;14.73;12.05;;;;;;;5.03;63.56;99348.91;6278736;22;19999;-80
2022/02/03 08:13:31;;;;;;;15.73;13.10;;;;;;;5.20;63.36;99383.09;6306418;22;20026;-80
2022/02/03 08:16:05;;;;;;;16.77;12.00;;;;;;;5.02;63.26;99356.91;6306556;22;20457;-80
2022/02/03 08:18:32;;;;;;;16.70;12.70;;;;;;;4.44;63.16;99256.03;6301707;22;20015;-80
2022/02/03 08:21:03;;;;;;;15.93;13.20;;;;;;;4.79;63.46;99294.53;6306704;22;20001;-80
2022/02/03 08:31:31;;;;;;;14.53;11.13;;;;;;;5.18;62.65;99330.09;6306607;22;20003;-81
2022/02/03 08:33:57;;;;;;;12.73;11.17;;;;;;;5.44;62.85;99370.28;6279015;22;19995;-80
2022/02/03 08:36:24;;;;;;;15.90;11.70;;;;;;;5.52;62.73;99385.25;6278884;22;20005;-80
2022/02/03 08:38:55;;;;;;;14.73;11.70;;;;;;;5.58;62.85;99382.84;6306102;22;20057;-80
2022/02/03 08:41:21;;;;;;;13.20;11.30;;;;;;;5.05;62.78;99297.25;6278834;22;20003;-80
2022/02/03 08:43:47;;;;;;;13.07;11.37;;;;;;;5.56;62.17;99379.56;6305976;22;20002;-82
2022/02/03 08:46:14;;;;;;;10.80;9.70;;;;;;;4.94;61.96;99275.72;6304353;22;20076;-80
2022/02/03 08:48:40;;;;;;;11.43;10.23;;;;;;;5.94;62.23;99427.41;6278463;22;20002;-80
2022/02/03 08:51:08;;;;;;;12.37;10.50;;;;;;;5.95;62.03;99432.50;6304174;22;19995;-80
2022/02/03 09:39:22;;;;;;;14.23;12.70;;;;;;;6.73;59.79;99482.44;6304984;22;20007;-79
2022/02/03 09:58:15;;;;;;;14.13;12.03;;;;;;;7.19;59.69;99482.97;6304941;22;20007;-78
2022/02/03 10:04:12;;;;;;;14.10;12.13;;;;;;;6.73;59.13;99405.50;6305294;22;20030;-80
2022/02/03 10:06:21;;;;;;;15.50;13.70;;;;;;;7.26;59.08;99484.00;6288197;22;20345;-78
2022/02/03 10:08:48;;;;;;;17.77;14.10;;;;;;;7.34;59.51;99492.72;6304812;22;20011;-79
2022/02/03 10:11:25;;;;;;;15.67;13.93;;;;;;;7.24;59.25;99455.28;6304679;22;20137;-79
2022/02/03 10:13:54;;;;;;;15.10;13.07;;;;;;;7.51;59.08;99483.13;6304291;22;20002;-80
2022/02/03 10:16:25;;;;;;;12.90;11.50;;;;;;;7.54;58.95;99495.13;6303902;22;20407;-82
2022/02/03 10:19:15;;;;;;;14.80;12.93;;;;;;;7.53;58.79;99490.84;6303701;22;20003;-83
2022/02/03 10:21:42;;;;;;;13.65;11.15;;;;;;;7.32;58.32;99468.44;6303722;22;19999;-81
2022/02/03 10:24:14;;;;;;;15.07;12.75;;;;;;;7.37;58.22;99477.63;6305335;22;20021;-79
2022/02/03 10:26:44;;;;;;;;;;;;;;;7.52;57.46;99497.09;6306081;22;19999;-81
2022/02/03 10:29:18;;;;;;;20.17;15.10;;;;;;;7.70;57.87;99503.06;6305541;22;20351;-82
2022/02/03 10:31:45;;;;;;;10.90;9.80;;;;;;;7.78;57.82;99496.97;6305090;22;20057;-80
2022/02/03 10:34:15;;;;;;;15.45;11.30;;;;;;;7.87;57.89;99509.16;6305272;22;20392;-79
2022/02/03 10:55:22;;;;;;;15.45;12.85;;;;;;;7.83;56.61;99466.59;6305235;22;20053;-79
2022/02/03 11:06:20;;;;;;;11.68;9.90;;;;;;;8.04;55.23;99486.34;6303623;22;20375;-79
2022/02/03 11:09:06;;;;;;;11.65;9.50;;;;;;;7.91;54.89;99486.81;6303666;22;20061;-79
2022/02/03 11:11:36;;;;;;;11.65;9.85;;;;;;;8.01;55.41;99534.81;6304551;22;20073;-79
2022/02/03 11:14:04;;;;;;;9.85;8.85;;;;;;;7.80;55.60;99502.91;6276525;22;20064;-82
2022/02/03 11:16:33;;;;;;;10.68;9.07;;;;;;;7.84;56.05;99515.56;6277236;22;20400;-80
2022/02/03 11:19:05;;;;;;;10.50;9.25;;;;;;;7.91;56.23;99531.50;6276791;22;20454;-79
2022/02/03 11:21:35;;;;;;;13.60;10.57;;;;;;;7.90;56.05;99535.13;6303644;22;20002;-81
2022/02/03 11:24:11;;;;;;;15.15;12.90;;;;;;;7.85;55.82;99538.25;6305013;22;19995;-87
2022/02/03 11:32:53;;;;;;;9.07;8.20;;;;;;;7.56;55.23;99538.66;6305632;22;20065;-86
2022/02/03 11:49:21;;;;;;;12.25;10.45;;;;;;;7.19;55.55;99496.09;6279449;22;20010;-89
2022/02/03 12:02:49;;;;;;;12.55;11.27;;;;;;;7.49;56.69;99558.66;6304537;22;20006;-90
2022/02/03 12:16:24;;;;;;;16.73;14.57;;;;;;;7.10;57.39;99539.06;6277361;22;19995;-87
2022/02/03 12:19:18;;;;;;;15.60;13.90;;;;;;;7.34;58.11;99570.69;6307005;22;20021;-87
2022/02/03 12:27:10;;;;;;;16.27;12.43;;;;;;;7.03;57.82;99538.88;6331054;22;19983;-86
2022/02/03 12:30:02;;;;;;;16.20;14.05;;;;;;;6.96;58.17;99498.47;6334818;22;19995;-83
2022/02/03 12:32:40;;;;;;;16.67;13.75;;;;;;;7.03;58.02;99520.47;6310477;22;19999;-86
2022/02/03 12:40:43;;;;;;;19.38;15.15;;;;;;;7.52;58.20;99587.22;6305380;22;20057;-89
2022/02/03 12:45:47;;;;;;;19.60;15.82;;;;;;;6.92;58.08;99476.97;6305484;22;20007;-91
2022/02/03 12:48:12;;;;;;;15.75;12.98;;;;;;;7.39;58.26;99547.41;6278586;22;20019;-84
2022/02/03 12:50:41;;;;;;;13.55;11.82;;;;;;;7.28;58.04;99517.00;6305452;22;20420;-87
2022/02/03 12:53:08;;;;;;;15.65;12.90;;;;;;;7.44;57.94;99521.53;6304034;22;20000;-87
2022/02/03 12:55:37;;;;;;;16.30;12.93;;;;;;;7.96;57.87;99593.13;6304649;22;20019;-86
2022/02/03 13:00:47;;;;;;;13.93;11.25;;;;;;;7.53;57.31;99533.72;6262307;22;20085;-88
2022/02/03 13:03:15;;;;;;;13.73;11.77;;;;;;;7.52;56.78;99547.81;6306548;22;19992;-93
2022/02/03 13:05:49;;;;;;;13.43;10.95;;;;;;;7.82;56.50;99590.31;6334859;22;19991;-91
2022/02/03 13:08:15;;;;;;;13.30;10.88;;;;;;;7.24;56.58;99531.41;6309492;22;19996;-94
2022/02/03 13:10:41;;;;;;;14.70;12.80;;;;;;;7.42;56.75;99530.50;6303878;22;19999;-92
2022/02/03 13:13:35;;;;;;;12.75;10.60;;;;;;;7.47;56.67;99551.91;6295709;22;19999;-95
2022/02/03 13:16:08;;;;;;;14.40;12.32;;;;;;;7.17;56.97;99506.78;6299485;22;20003;-94
2022/02/03 13:18:36;;;;;;;17.08;14.80;;;;;;;7.57;56.84;99587.59;6284983;22;20337;-91
2022/02/03 13:21:29;;;;;;;17.42;14.27;;;;;;;7.28;56.48;99532.75;6283164;22;20002;-90
2022/02/03 13:26:59;;;;;;;13.57;11.07;;;;;;;7.72;56.91;99626.41;6309249;22;20006;-96
2022/02/03 13:32:04;;;;;;;17.70;13.60;;;;;;;7.73;57.50;99651.69;6312401;22;19999;-96
2022/02/03 13:34:40;;;;;;;19.60;15.65;;;;;;;7.77;57.40;99637.25;6284336;22;20071;-96
2022/02/03 13:37:43;;;;;;;17.85;15.30;;;;;;;5.21;57.21;99259.97;6285511;22;20034;-96
2022/02/03 13:40:19;;;;;;;12.95;10.02;;;;;;;7.08;55.63;99543.66;6310219;22;20043;-96
2022/02/03 13:42:50;;;;;;;13.68;11.20;;;;;;;7.15;55.94;99552.53;6280558;22;19999;-96
2022/02/03 13:45:18;;;;;;;14.27;10.88;;;;;;;7.96;55.64;99639.66;6281410;22;20061;-96
2022/02/03 13:47:46;;;;;;;14.65;10.80;;;;;;;7.86;54.82;99617.91;6287078;22;19999;-96
2022/02/03 13:50:29;;;;;;;14.80;11.98;;;;;;;7.91;54.49;99616.47;6286731;22;20106;-96
2022/02/03 13:53:05;;;;;;;15.38;12.90;;;;;;;7.87;54.50;99615.13;6286733;22;20003;-96
2022/02/03 14:28:18;;;;;;;16.85;12.77;;;;;;;7.06;53.76;99588.44;6306420;22;20006;-95
2022/02/03 14:30:47;;;;;;;20.17;13.38;;;;;;;7.62;53.54;99679.91;6280059;22;20003;-96
2022/02/03 14:33:22;;;;;;;18.42;12.80;;;;;;;7.47;53.86;99667.50;6280876;22;19999;-95
2022/02/03 14:35:48;;;;;;;17.27;11.38;;;;;;;7.26;53.40;99616.13;6285903;22;20432;-95
2022/02/03 14:40:52;;;;;;;16.65;10.27;;;;;;;7.23;53.34;99628.75;6306961;22;19999;-93
2022/02/03 14:43:18;;;;;;;17.17;12.32;;;;;;;7.22;53.27;99622.66;6275609;22;20010;-96
2022/02/03 14:45:43;;;;;;;20.30;14.05;;;;;;;7.31;53.09;99647.16;6277999;22;19995;-94
2022/02/03 14:48:13;;;;;;;24.23;17.75;;;;;;;7.34;53.36;99660.00;6305870;22;20018;-96
2022/02/03 14:50:39;;;;;;;21.05;16.02;;;;;;;6.79;53.22;99588.56;6278033;22;20003;-93
2022/02/03 14:53:14;;;;;;;24.83;17.92;;;;;;;5.42;52.94;99367.00;6278339;22;20322;-93
2022/02/03 14:58:28;;;;;;;19.23;12.35;;;;;;;7.40;53.39;99716.34;6306738;22;20473;-94
2022/02/03 15:00:56;;;;;;;18.48;13.25;;;;;;;7.37;52.62;99706.97;6308693;22;20002;-94
2022/02/03 15:03:24;;;;;;;19.23;12.23;;;;;;;7.11;52.75;99679.84;6308912;22;19995;-94
2022/02/03 15:05:50;;;;;;;19.92;12.68;;;;;;;6.79;52.80;99623.50;6309682;22;20137;-93
2022/02/03 15:08:21;;;;;;;16.65;12.50;;;;;;;7.08;52.56;99673.09;6311393;22;19995;-94
2022/02/03 15:11:10;;;;;;;19.40;13.52;;;;;;;6.87;53.03;99676.06;6309994;22;20446;-94
2022/02/03 15:13:44;;;;;;;22.23;16.35;;;;;;;7.27;52.65;99722.00;6310398;22;20026;-93
2022/02/03 15:16:10;;;;;;;22.58;17.15;;;;;;;6.53;53.12;99606.84;6311113;22;20005;-94
2022/02/03 15:18:37;;;;;;;18.88;14.38;;;;;;;7.23;53.01;99731.97;6311119;22;20082;-93
2022/02/03 15:21:04;;;;;;;16.15;13.38;;;;;;;6.57;53.18;99629.19;6310740;22;19998;-93
2022/02/03 15:23:30;;;;;;;18.85;13.70;;;;;;;6.29;52.87;99612.69;6310510;22;20078;-94
2022/02/03 15:25:55;;;;;;;16.33;10.32;;;;;;;6.80;52.67;99689.94;6338002;22;20030;-93
2022/02/03 15:28:21;;;;;;;19.23;12.48;;;;;;;6.77;52.66;99688.44;6311147;22;20006;-94
2022/02/03 15:30:47;;;;;;;13.70;10.73;;;;;;;6.93;52.66;99719.25;6310877;22;20121;-93
2022/02/03 15:33:13;;;;;;;15.80;10.75;;;;;;;6.87;52.38;99712.81;6310566;22;20007;-93
2022/02/03 15:35:49;;;;;;;17.30;11.38;;;;;;;6.69;52.45;99694.44;6337758;22;19991;-93
2022/02/03 15:38:20;;;;;;;18.30;12.15;;;;;;;6.22;52.45;99630.81;6310467;22;20013;-94
2022/02/03 15:40:47;;;;;;;12.90;9.55;;;;;;;6.95;52.32;99759.28;6309758;22;20392;-94
2022/02/03 15:43:28;;;;;;;15.63;11.35;;;;;;;6.16;52.97;99626.16;6338842;22;19998;-93
2022/02/03 15:45:59;;;;;;;17.77;12.48;;;;;;;6.77;52.93;99735.66;6310740;22;20033;-93
2022/02/03 16:18:23;;;;;;;16.50;13.27;;;;;;;6.30;53.58;99724.47;6336311;22;20011;-93
2022/02/03 16:21:08;;;;;;;18.77;15.25;;;;;;;6.37;53.60;99723.75;6311077;22;19999;-92
2022/02/03 16:24:02;;;;;;;16.08;13.65;;;;;;;6.03;53.53;99736.59;6310812;22;20059;-93
2022/02/03 16:51:12;;;;;;;20.63;16.57;;;;;;;6.29;53.72;99804.09;6338645;22;20036;-94
2022/02/03 16:53:37;;;;;;;19.88;15.00;;;;;;;6.31;53.64;99815.28;6310967;22;19999;-93
2022/02/03 16:56:08;;;;;;;22.40;16.73;;;;;;;5.88;53.83;99760.75;6311155;22;20003;-95
2022/02/03 16:58:35;;;;;;;20.07;16.00;;;;;;;6.23;53.80;99821.25;6310628;22;20533;-94
2022/02/03 17:01:01;;;;;;;22.17;15.97;;;;;;;5.06;53.53;99646.09;6311156;22;20405;-95
2022/02/03 17:03:27;;;;;;;21.53;16.43;;;;;;;6.03;53.95;99780.34;6310929;22;20074;-96
2022/02/03 17:05:52;;;;;;;20.10;16.57;;;;;;;6.10;53.61;99793.69;6310848;22;20019;-94
2022/02/03 17:08:20;;;;;;;20.40;16.37;;;;;;;6.11;54.07;99814.53;6338596;22;20069;-94
2022/02/03 17:10:45;;;;;;;18.23;15.90;;;;;;;6.17;53.82;99842.78;6310913;22;20025;-95
2022/02/03 17:13:11;;;;;;;17.00;15.20;;;;;;;5.15;53.74;99681.91;6311097;22;20355;-94
2022/02/03 17:15:37;;;;;;;20.73;16.70;;;;;;;5.58;54.10;99736.41;6310713;22;20002;-95
2022/02/03 17:18:03;;;;;;;22.40;18.47;;;;;;;5.51;53.84;99755.44;6310415;22;20064;-92
2022/02/03 17:20:30;;;;;;;21.50;16.90;;;;;;;5.92;54.42;99831.09;6310577;22;20006;-93
2022/02/03 17:22:57;;;;;;;24.03;17.80;;;;;;;5.22;53.94;99695.28;6310414;22;20007;-93
2022/02/03 17:30:31;;;;;;;17.70;15.85;;;;;;;5.92;54.03;99815.38;6338453;22;19998;-93
2022/02/03 20:12:21;;;;;;;13.93;10.18;;;;;;;3.31;62.66;99693.66;6288318;22;20042;-92
2022/02/03 20:14:49;;;;;;;14.90;12.17;;;;;;;4.48;62.59;99881.44;6290060;22;20031;-92
2022/02/03 20:17:18;;;;;;;14.00;11.90;;;;;;;4.15;62.87;99814.53;6276126;22;20011;-93
2022/02/03 20:19:44;;;;;;;16.83;13.23;;;;;;;4.91;63.41;99916.97;6275742;22;20004;-92
2022/02/03 20:22:10;;;;;;;15.40;12.00;;;;;;;4.65;63.70;99903.53;6275866;22;20023;-93
2022/02/03 20:24:36;;;;;;;16.63;12.10;;;;;;;3.78;63.92;99749.75;6277213;22;20017;-91
2022/02/03 20:27:02;;;;;;;26.73;19.37;;;;;;;5.49;63.81;100027.94;6277642;22;20039;-92
2022/02/03 20:29:27;;;;;;;25.70;18.53;;;;;;;5.15;63.70;99967.19;6275964;22;20131;-91
2022/02/03 20:31:52;;;;;;;22.73;17.53;;;;;;;4.65;63.58;99903.53;6277174;22;19996;-90
2022/02/03 20:34:18;;;;;;;53.27;33.50;;;;;;;4.83;63.70;99930.72;6275867;22;20022;-91
2022/02/03 20:36:43;;;;;;;30.27;22.63;;;;;;;5.54;63.86;100054.56;6277146;22;20066;-87
2022/02/03 20:39:09;;;;;;;32.23;23.40;;;;;;;4.47;64.16;99870.16;6276326;22;20494;-91
2022/02/03 20:41:34;;;;;;;29.83;22.03;;;;;;;4.46;63.86;99875.50;6277562;22;20003;-91
2022/02/03 20:44:00;;;;;;;27.73;20.33;;;;;;;4.47;64.32;99857.06;6281155;22;20003;-91
2022/02/03 20:46:25;;;;;;;24.27;19.67;;;;;;;4.69;64.22;99916.22;6307789;22;19995;-91
2022/02/03 20:48:51;;;;;;;25.50;20.37;;;;;;;5.29;64.20;99977.31;6280789;22;19991;-91
2022/02/03 20:51:19;;;;;;;23.87;19.43;;;;;;;4.49;64.23;99880.47;6308118;22;20000;-91
2022/02/03 20:53:46;;;;;;;27.37;22.80;;;;;;;5.54;63.87;100043.25;6308193;22;20017;-91
2022/02/03 20:56:15;;;;;;;24.20;19.63;;;;;;;3.58;64.02;99758.38;6308800;22;20055;-91
2022/02/03 20:58:41;;;;;;;23.33;17.90;;;;;;;4.97;64.41;99934.75;6290512;22;20443;-89
2022/02/03 21:01:19;;;;;;;20.80;16.00;;;;;;;3.66;64.30;99771.63;6318820;22;20001;-89
2022/02/03 21:03:46;;;;;;;18.80;14.33;;;;;;;4.19;63.94;99841.22;6346786;22;20052;-90
2022/02/03 21:06:14;;;;;;;18.27;14.30;;;;;;;4.57;64.01;99911.19;6316239;22;19998;-89
2022/02/03 21:08:42;;;;;;;19.47;15.30;;;;;;;5.43;63.80;100015.38;6315078;22;20015;-89
2022/02/03 21:11:07;;;;;;;17.60;13.47;;;;;;;4.93;63.20;99938.59;6312830;22;20459;-88
2022/02/03 21:13:34;;;;;;;16.43;13.37;;;;;;;4.98;63.01;99976.50;6312513;22;19995;-90
2022/02/03 21:16:01;;;;;;;17.03;13.87;;;;;;;5.42;63.01;100076.56;6316627;22;20321;-90
2022/02/03 21:18:30;;;;;;;15.80;13.13;;;;;;;5.41;62.76;100033.03;6318086;22;20055;-91
2022/02/03 21:20:55;;;;;;;14.03;11.97;;;;;;;5.36;62.43;100036.03;6318713;22;20006;-88
2022/02/03 21:23:21;;;;;;;13.40;11.07;;;;;;;4.36;61.64;99893.72;6321845;22;20074;-89
2022/02/03 21:25:51;;;;;;;15.60;12.97;;;;;;;3.81;60.98;99809.53;6317465;22;19995;-87
2022/02/03 21:28:22;;;;;;;13.50;11.13;;;;;;;3.86;61.13;99795.28;6328019;22;19999;-87
2022/02/03 21:30:50;;;;;;;14.23;11.43;;;;;;;4.75;60.54;99969.78;6322909;22;20006;-90
2022/02/03 21:33:23;;;;;;;12.07;10.00;;;;;;;5.25;60.12;100070.16;6332004;22;20004;-88
2022/02/03 21:39:15;;;;;;;12.00;9.77;;;;;;;2.60;58.96;99656.06;6292993;22;20004;-88
2022/02/03 21:44:41;;;;;;;10.53;9.20;;;;;;;3.26;59.02;99749.78;6240635;22;20015;-92
2022/02/03 21:47:21;;;;;;;11.97;9.23;;;;;;;2.79;58.34;99725.78;6304382;22;19988;-88
2022/02/03 21:49:49;;;;;;;10.27;9.10;;;;;;;3.33;58.21;99774.44;6303555;22;20007;-88
2022/02/03 21:54:58;;;;;;;12.48;8.82;;;;;;;3.17;57.87;99804.38;6209456;22;20055;-89
